Time;durP1;ratioP1;P1;durP2;ratioP2;P2;SDS_P1;SDS_P2;PMS_P1;PMS_P2;Temp;Humidity;BMP_temperature;BMP_pressure;BME280_temperature;BME280_humidity;BME280_pressure;Samples;Min_cycle;Max_cycle;Signal;HPM_P1;HPM_P2
2022/01/11 00:00:28;;;;;;;0.40;0.40;;;2.80;99.90;;;;;;5014749;28;20083;-76
2022/01/11 00:02:56;;;;;;;0.30;0.30;;;3.00;99.90;;;;;;5032003;28;20432;-76
2022/01/11 00:05:27;;;;;;;0.20;0.20;;;3.00;99.90;;;;;;4998178;28;20030;-76
2022/01/11 00:07:54;;;;;;;0.30;0.30;;;2.90;99.90;;;;;;5014404;28;20038;-75
2022/01/11 00:10:28;;;;;;;0.30;0.30;;;2.90;99.90;;;;;;5014519;28;20370;-75
2022/01/11 00:12:56;;;;;;;0.40;0.40;;;2.80;99.90;;;;;;5032192;28;20109;-76
2022/01/11 00:15:22;;;;;;;0.57;0.57;;;2.80;99.90;;;;;;5032071;28;20025;-76
2022/01/11 00:17:48;;;;;;;0.30;0.30;;;2.90;99.90;;;;;;5031909;28;20033;-76
2022/01/11 00:20:16;;;;;;;0.95;0.95;;;2.70;99.90;;;;;;5014386;28;20029;-76
2022/01/11 00:24:27;;;;;;;0.30;0.30;;;2.60;99.90;;;;;;5031825;28;20029;-76
2022/01/11 00:25:31;;;;;;;0.20;0.20;;;2.70;99.90;;;;;;5031816;28;20017;-76
2022/01/11 00:27:57;;;;;;;1.75;1.38;;;2.80;99.90;;;;;;4997607;28;20033;-76
2022/01/11 00:30:29;;;;;;;0.20;0.20;;;2.90;99.90;;;;;;5031973;28;20025;-76
2022/01/11 00:32:57;;;;;;;0.30;0.30;;;2.90;99.90;;;;;;5014359;28;20060;-76
2022/01/11 00:35:27;;;;;;;0.30;0.30;;;2.70;99.90;;;;;;5014197;28;20095;-76
2022/01/11 00:37:54;;;;;;;0.20;0.20;;;2.80;99.90;;;;;;5031723;28;20029;-76
2022/01/11 00:40:21;;;;;;;0.43;0.43;;;2.80;99.90;;;;;;5014049;28;20083;-76
2022/01/11 00:42:47;;;;;;;0.30;0.30;;;2.80;99.90;;;;;;5031675;28;20045;-76
2022/01/11 00:45:13;;;;;;;0.20;0.20;;;2.70;99.90;;;;;;5031652;28;20532;-76
2022/01/11 00:47:40;;;;;;;0.20;0.20;;;2.60;99.90;;;;;;5014113;28;20076;-76
2022/01/11 00:50:07;;;;;;;0.30;0.30;;;2.70;99.90;;;;;;5031741;28;20481;-76
2022/01/11 00:52:33;;;;;;;0.60;0.60;;;2.80;99.90;;;;;;5031608;28;20021;-76
2022/01/11 00:54:59;;;;;;;5.40;1.40;;;2.90;99.90;;;;;;5013922;28;20036;-76
2022/01/11 00:57:25;;;;;;;0.30;0.30;;;3.00;99.90;;;;;;5031561;28;20037;-76
2022/01/11 00:59:52;;;;;;;0.20;0.20;;;2.80;99.90;;;;;;5031654;28;20029;-76
2022/01/11 01:02:18;;;;;;;2.25;2.00;;;2.60;99.90;;;;;;5031426;28;20022;-76
2022/01/11 01:04:44;;;;;;;0.30;0.30;;;2.40;99.90;;;;;;5031787;28;20041;-76
2022/01/11 01:07:09;;;;;;;2.78;2.28;;;2.50;99.90;;;;;;5032066;28;20045;-76
2022/01/11 01:12:21;;;;;;;0.25;0.25;;;2.50;99.90;;;;;;5007082;28;20064;-76
2022/01/11 01:14:47;;;;;;;0.20;0.20;;;2.50;99.90;;;;;;5035361;28;20025;-76
2022/01/11 01:17:12;;;;;;;2.78;2.03;;;2.50;99.90;;;;;;5001082;28;20029;-76
2022/01/11 01:19:38;;;;;;;0.70;0.68;;;2.50;99.90;;;;;;5035247;28;20029;-76
2022/01/11 01:22:04;;;;;;;0.20;0.20;;;2.50;99.90;;;;;;5035093;28;20035;-76
2022/01/11 01:24:30;;;;;;;0.30;0.30;;;2.50;99.90;;;;;;5035237;28;20022;-76
2022/01/11 01:26:55;;;;;;;5.47;1.23;;;2.50;99.90;;;;;;5035114;28;20380;-76
2022/01/11 01:29:21;;;;;;;1.23;1.23;;;2.50;99.90;;;;;;5034959;28;20021;-76
2022/01/11 01:31:47;;;;;;;0.30;0.30;;;2.50;99.90;;;;;;5017175;28;20072;-76
2022/01/11 01:34:13;;;;;;;1.92;1.08;;;2.40;99.90;;;;;;5035051;28;20036;-76
2022/01/11 01:36:38;;;;;;;0.43;0.43;;;2.30;99.90;;;;;;5034852;28;20027;-76
2022/01/11 01:39:05;;;;;;;5.28;3.53;;;2.20;99.90;;;;;;5034976;28;20100;-76
2022/01/11 01:41:31;;;;;;;0.20;0.20;;;2.40;99.90;;;;;;5034782;28;20075;-76
2022/01/11 01:44:00;;;;;;;0.30;0.30;;;2.40;99.90;;;;;;5034634;28;20033;-76
2022/01/11 01:46:29;;;;;;;0.88;0.68;;;2.30;99.90;;;;;;5035126;28;20029;-76
2022/01/11 01:48:59;;;;;;;0.32;0.32;;;2.40;99.90;;;;;;5034806;28;20143;-76
2022/01/11 01:51:25;;;;;;;0.35;0.35;;;2.30;99.90;;;;;;5016874;28;20037;-76
2022/01/11 01:53:51;;;;;;;0.30;0.30;;;2.30;99.90;;;;;;5016947;28;20513;-76
2022/01/11 01:56:20;;;;;;;0.20;0.20;;;2.40;99.90;;;;;;5034469;28;20025;-76
2022/01/11 01:58:46;;;;;;;0.30;0.30;;;2.40;99.90;;;;;;5034403;28;20109;-76
2022/01/11 02:01:13;;;;;;;3.85;2.05;;;2.40;99.90;;;;;;5016719;28;20079;-76
2022/01/11 02:03:41;;;;;;;0.30;0.30;;;2.30;99.90;;;;;;5016868;28;20108;-76
2022/01/11 02:06:16;;;;;;;0.22;0.22;;;2.30;99.90;;;;;;5034374;28;20044;-76
2022/01/11 02:08:44;;;;;;;0.28;0.28;;;2.30;99.90;;;;;;5034454;28;20052;-76
2022/01/11 02:11:11;;;;;;;0.30;0.30;;;2.40;99.90;;;;;;5034321;28;20040;-76
2022/01/11 02:13:37;;;;;;;0.20;0.20;;;2.40;99.90;;;;;;5034180;28;20032;-76
2022/01/11 02:16:04;;;;;;;3.88;2.00;;;2.50;99.90;;;;;;5034070;28;20109;-76
2022/01/11 02:18:30;;;;;;;1.38;1.27;;;2.60;99.90;;;;;;5033495;28;20049;-76
2022/01/11 02:20:58;;;;;;;0.40;0.40;;;2.50;99.90;;;;;;5033860;28;20041;-76
2022/01/11 02:23:27;;;;;;;2.45;1.27;;;2.60;99.90;;;;;;5034110;28;20025;-76
2022/01/11 02:25:53;;;;;;;0.50;0.50;;;2.40;99.90;;;;;;5034011;28;20448;-76
2022/01/11 02:28:21;;;;;;;0.38;0.38;;;2.50;99.90;;;;;;5034082;28;20392;-76
2022/01/11 02:30:47;;;;;;;0.30;0.30;;;2.30;99.90;;;;;;5033875;28;20108;-76
2022/01/11 02:33:29;;;;;;;0.65;0.65;;;2.40;99.90;;;;;;5033917;28;20053;-76
2022/01/11 02:35:55;;;;;;;0.20;0.20;;;2.60;99.90;;;;;;5016106;28;20032;-76
2022/01/11 02:38:21;;;;;;;0.30;0.30;;;2.60;99.90;;;;;;5016176;28;20116;-76
2022/01/11 02:40:47;;;;;;;0.30;0.30;;;2.70;99.90;;;;;;5033648;28;20025;-76
2022/01/11 02:43:12;;;;;;;5.55;2.35;;;2.80;99.90;;;;;;5033644;28;20041;-76
2022/01/11 02:45:38;;;;;;;0.50;0.50;;;2.70;99.90;;;;;;5033536;28;20032;-76
2022/01/11 02:48:04;;;;;;;0.20;0.20;;;2.70;99.90;;;;;;5033727;28;20025;-76
2022/01/11 02:50:30;;;;;;;0.20;0.20;;;2.70;99.90;;;;;;5033702;28;20018;-76
2022/01/11 02:52:55;;;;;;;0.30;0.30;;;2.70;99.90;;;;;;5015725;28;20022;-76
2022/01/11 02:55:21;;;;;;;2.15;2.05;;;2.70;99.90;;;;;;5033438;28;20469;-76
2022/01/11 02:57:47;;;;;;;0.45;0.45;;;2.90;99.90;;;;;;5015632;28;20309;-76
2022/01/11 03:00:19;;;;;;;0.30;0.30;;;2.90;99.90;;;;;;5015623;28;20053;-76
2022/01/11 03:02:45;;;;;;;0.68;0.68;;;2.80;99.90;;;;;;5015688;28;20041;-76
2022/01/11 03:05:12;;;;;;;0.20;0.20;;;2.90;99.90;;;;;;5033196;28;20473;-76
2022/01/11 03:07:40;;;;;;;1.40;1.08;;;2.90;99.90;;;;;;5015403;28;20435;-76
2022/01/11 03:10:32;;;;;;;0.20;0.20;;;2.90;99.90;;;;;;5015456;28;20025;-76
2022/01/11 03:13:00;;;;;;;;;;;2.70;99.90;;;;;;5033583;28;20029;-76
2022/01/11 03:15:25;;;;;;;0.20;0.20;;;2.90;99.90;;;;;;5033029;28;19912;-76
2022/01/11 03:17:51;;;;;;;2.58;2.40;;;3.00;99.90;;;;;;5033003;28;20481;-76
2022/01/11 03:20:17;;;;;;;1.38;1.27;;;3.00;99.90;;;;;;5033081;28;20029;-76
2022/01/11 03:22:43;;;;;;;1.58;1.48;;;2.90;99.90;;;;;;5032880;28;20087;-76
2022/01/11 03:25:09;;;;;;;0.20;0.20;;;2.90;99.90;;;;;;5032965;28;20029;-76
2022/01/11 03:27:35;;;;;;;0.20;0.20;;;2.80;99.90;;;;;;5032546;28;20033;-76
2022/01/11 03:30:02;;;;;;;1.90;1.80;;;2.70;99.90;;;;;;4998579;28;20426;-76
2022/01/11 03:32:27;;;;;;;0.40;0.40;;;2.80;99.90;;;;;;5032807;28;20446;-76
2022/01/11 03:34:53;;;;;;;0.30;0.30;;;2.90;99.90;;;;;;5032983;28;20057;-76
2022/01/11 03:37:20;;;;;;;0.30;0.30;;;2.90;99.90;;;;;;5032635;28;20021;-76
2022/01/11 03:39:47;;;;;;;1.08;1.08;;;3.00;99.90;;;;;;5032729;28;20021;-76
2022/01/11 03:42:13;;;;;;;0.28;0.28;;;3.10;99.90;;;;;;5032380;28;20590;-76
2022/01/11 03:44:38;;;;;;;0.20;0.20;;;3.10;99.90;;;;;;5049084;22;20387;-74
2022/01/11 03:47:05;;;;;;;0.50;0.50;;;3.20;99.90;;;;;;5033700;28;20036;-74
2022/01/11 03:49:30;;;;;;;1.40;1.00;;;3.10;99.90;;;;;;5052477;28;20033;-74
2022/01/11 03:51:56;;;;;;;0.35;0.35;;;3.20;99.90;;;;;;5052241;28;20407;-74
2022/01/11 03:54:29;;;;;;;0.25;0.25;;;3.20;99.90;;;;;;5034573;28;20025;-74
2022/01/11 03:56:55;;;;;;;2.10;1.95;;;3.20;99.90;;;;;;5034304;28;20032;-74
2022/01/11 03:59:21;;;;;;;1.65;1.55;;;3.10;99.90;;;;;;5052101;28;20029;-74
2022/01/11 04:01:48;;;;;;;0.55;0.55;;;3.10;99.90;;;;;;5034207;28;20060;-74
2022/01/11 04:04:15;;;;;;;0.43;0.43;;;3.10;99.90;;;;;;5052139;28;20029;-74
2022/01/11 04:06:41;;;;;;;0.28;0.28;;;3.10;99.90;;;;;;5017735;28;20163;-74
2022/01/11 04:09:08;;;;;;;1.90;1.77;;;2.90;99.90;;;;;;5034235;28;20079;-74
2022/01/11 04:11:34;;;;;;;0.25;0.25;;;3.10;99.90;;;;;;5034107;28;20500;-74
2022/01/11 04:14:00;;;;;;;0.22;0.22;;;3.10;99.90;;;;;;5034247;28;20025;-74
2022/01/11 04:16:26;;;;;;;7.97;3.85;;;3.10;99.90;;;;;;5051853;28;20102;-74
2022/01/11 04:18:52;;;;;;;0.63;0.63;;;2.90;99.90;;;;;;5051964;28;20483;-74
2022/01/11 04:21:17;;;;;;;0.30;0.30;;;2.80;99.90;;;;;;5051831;28;20032;-74
2022/01/11 04:23:43;;;;;;;0.20;0.20;;;2.90;99.90;;;;;;5051973;28;20067;-74
2022/01/11 04:26:09;;;;;;;0.28;0.28;;;2.90;99.90;;;;;;5033793;28;20067;-75
2022/01/11 04:28:35;;;;;;;7.13;3.60;;;3.10;99.90;;;;;;5033966;28;20025;-74
2022/01/11 04:31:01;;;;;;;0.30;0.30;;;3.10;99.90;;;;;;5033926;28;20502;-74
2022/01/11 04:33:28;;;;;;;2.83;1.65;;;2.90;99.90;;;;;;5051746;28;20058;-74
2022/01/11 04:35:55;;;;;;;4.18;3.40;;;2.80;99.90;;;;;;5051616;28;20021;-74
2022/01/11 04:38:23;;;;;;;0.40;0.40;;;2.70;99.90;;;;;;5051901;28;20036;-74
2022/01/11 04:40:50;;;;;;;0.30;0.30;;;2.50;99.90;;;;;;5033816;28;20024;-74
2022/01/11 04:43:16;;;;;;;3.67;3.40;;;2.50;99.90;;;;;;5019981;28;20040;-74
2022/01/11 04:45:42;;;;;;;0.30;0.30;;;2.50;99.90;;;;;;5055718;28;20025;-74
2022/01/11 04:48:08;;;;;;;1.67;1.58;;;2.70;99.90;;;;;;5038021;28;20098;-74
2022/01/11 04:50:34;;;;;;;4.28;2.33;;;2.60;99.90;;;;;;5037917;28;20017;-74
2022/01/11 04:53:01;;;;;;;2.22;2.05;;;2.60;99.90;;;;;;5055652;28;20031;-74
2022/01/11 04:55:27;;;;;;;0.30;0.30;;;2.40;99.90;;;;;;5037576;28;20033;-74
2022/01/11 04:57:53;;;;;;;0.60;0.60;;;2.40;99.90;;;;;;5055518;28;20025;-74
2022/01/11 05:00:21;;;;;;;0.30;0.30;;;2.70;99.90;;;;;;5037572;28;20021;-74
2022/01/11 05:02:47;;;;;;;1.20;1.20;;;2.80;99.90;;;;;;5037432;28;20412;-74
2022/01/11 05:05:14;;;;;;;1.17;1.05;;;2.80;99.90;;;;;;5037679;28;20068;-74
2022/01/11 05:07:45;;;;;;;0.25;0.25;;;2.80;99.90;;;;;;5021006;28;20120;-74
2022/01/11 05:10:12;;;;;;;1.85;1.75;;;2.80;99.90;;;;;;5055418;28;20047;-74
2022/01/11 05:12:39;;;;;;;1.05;1.05;;;2.80;99.90;;;;;;5037491;28;20029;-75
2022/01/11 05:15:10;;;;;;;3.55;3.35;;;3.00;99.90;;;;;;5037561;28;20098;-74
2022/01/11 05:17:36;;;;;;;3.23;2.70;;;3.00;99.90;;;;;;5055104;28;20063;-74
2022/01/11 05:20:04;;;;;;;1.13;1.13;;;2.70;99.90;;;;;;5055205;28;20468;-74
2022/01/11 05:22:30;;;;;;;0.30;0.30;;;2.80;99.90;;;;;;5037114;28;20028;-74
2022/01/11 05:24:56;;;;;;;1.85;1.75;;;2.80;99.90;;;;;;5037305;28;20025;-74
2022/01/11 05:27:21;;;;;;;0.55;0.55;;;2.70;99.90;;;;;;5055019;28;20384;-74
2022/01/11 05:29:47;;;;;;;0.20;0.20;;;2.80;99.90;;;;;;5054976;28;20170;-74
2022/01/11 05:32:13;;;;;;;0.20;0.20;;;2.90;99.90;;;;;;5054980;28;20464;-74
2022/01/11 05:34:38;;;;;;;1.08;1.00;;;2.80;99.90;;;;;;5037106;28;20021;-74
2022/01/11 05:37:04;;;;;;;1.13;0.90;;;2.80;99.90;;;;;;5037007;28;20104;-74
2022/01/11 05:39:30;;;;;;;4.43;3.25;;;2.90;99.90;;;;;;5036834;28;20021;-74
2022/01/11 05:41:56;;;;;;;1.77;1.67;;;3.00;99.90;;;;;;5037038;28;20107;-74
2022/01/11 05:44:22;;;;;;;1.45;1.42;;;3.00;99.90;;;;;;5036557;28;20079;-74
2022/01/11 05:46:48;;;;;;;3.45;3.15;;;3.00;99.90;;;;;;5054555;28;20025;-74
2022/01/11 05:49:14;;;;;;;0.70;0.70;;;2.90;99.90;;;;;;5054743;28;20369;-74
2022/01/11 05:51:40;;;;;;;0.95;0.95;;;2.80;99.90;;;;;;5036536;28;20108;-74
2022/01/11 05:54:05;;;;;;;0.20;0.20;;;2.80;99.90;;;;;;5036835;28;20639;-74
2022/01/11 05:56:31;;;;;;;0.77;0.77;;;2.90;99.90;;;;;;5054497;28;20079;-74
2022/01/11 05:58:57;;;;;;;0.20;0.20;;;2.90;99.90;;;;;;5054498;28;20044;-74
2022/01/11 06:01:23;;;;;;;1.88;1.63;;;3.00;99.90;;;;;;5036462;28;20446;-74
2022/01/11 06:03:49;;;;;;;0.65;0.65;;;2.90;99.90;;;;;;5019992;28;20468;-74
2022/01/11 06:06:15;;;;;;;1.55;1.27;;;2.90;99.90;;;;;;5054171;28;20124;-74
2022/01/11 06:08:41;;;;;;;0.95;0.95;;;3.00;99.90;;;;;;5054260;28;20104;-74
2022/01/11 06:11:07;;;;;;;0.93;0.93;;;2.90;99.90;;;;;;5054223;28;20052;-74
2022/01/11 06:13:33;;;;;;;0.40;0.40;;;2.90;99.90;;;;;;5036173;28;20029;-74
2022/01/11 06:15:59;;;;;;;0.75;0.75;;;2.90;99.90;;;;;;5053964;28;20029;-74
2022/01/11 06:18:25;;;;;;;1.23;1.23;;;2.90;99.90;;;;;;5054183;28;20358;-74
2022/01/11 06:20:51;;;;;;;0.63;0.63;;;2.90;99.90;;;;;;5054097;28;20040;-74
2022/01/11 06:23:16;;;;;;;0.30;0.30;;;2.90;99.90;;;;;;5036088;28;20032;-74
2022/01/11 06:25:42;;;;;;;0.32;0.32;;;2.70;99.90;;;;;;5035923;28;20024;-74
2022/01/11 06:28:08;;;;;;;0.30;0.30;;;2.80;99.90;;;;;;5035746;28;20028;-74
2022/01/11 06:30:33;;;;;;;0.40;0.40;;;2.90;99.90;;;;;;5036171;28;20029;-74
2022/01/11 06:32:59;;;;;;;0.20;0.20;;;2.90;99.90;;;;;;5053783;28;20028;-74
2022/01/11 06:35:25;;;;;;;0.65;0.47;;;2.60;99.90;;;;;;5053710;28;20404;-74
2022/01/11 06:37:52;;;;;;;0.30;0.30;;;2.70;99.90;;;;;;5053624;28;20033;-74
2022/01/11 06:40:20;;;;;;;0.63;0.63;;;2.80;99.90;;;;;;5053680;28;20033;-74
2022/01/11 06:42:47;;;;;;;1.85;1.75;;;2.80;99.90;;;;;;5053391;28;20025;-74
2022/01/11 06:45:15;;;;;;;0.30;0.30;;;2.60;99.90;;;;;;5041964;28;20028;-74
2022/01/11 06:47:42;;;;;;;0.50;0.50;;;2.60;99.90;;;;;;5037854;28;20017;-74
2022/01/11 06:50:09;;;;;;;0.57;0.57;;;2.70;99.90;;;;;;5055542;28;20029;-74
2022/01/11 06:52:35;;;;;;;0.30;0.30;;;2.80;99.90;;;;;;5066775;28;20052;-74
2022/01/11 06:55:03;;;;;;;0.20;0.20;;;2.70;99.90;;;;;;5035669;28;20025;-74
2022/01/11 06:57:29;;;;;;;1.92;1.50;;;2.70;99.90;;;;;;5035352;28;20025;-74
2022/01/11 06:59:55;;;;;;;1.23;1.23;;;2.80;99.90;;;;;;5053171;28;20435;-74
2022/01/11 07:02:21;;;;;;;4.50;3.08;;;2.90;99.90;;;;;;5034976;28;20029;-74
2022/01/11 07:04:46;;;;;;;1.17;0.95;;;2.90;99.90;;;;;;5034658;28;20475;-74
2022/01/11 07:07:12;;;;;;;0.25;0.25;;;2.90;99.90;;;;;;5035039;28;20079;-74
2022/01/11 07:09:38;;;;;;;0.32;0.32;;;2.80;99.90;;;;;;5030738;28;20048;-74
2022/01/11 07:12:04;;;;;;;0.32;0.32;;;2.80;99.90;;;;;;5052430;28;20525;-74
2022/01/11 07:14:30;;;;;;;3.92;3.63;;;2.90;99.90;;;;;;5034787;28;20293;-74
2022/01/11 07:16:56;;;;;;;1.38;1.38;;;2.90;99.90;;;;;;5040543;28;20036;-74
2022/01/11 07:19:22;;;;;;;0.90;0.90;;;2.80;99.90;;;;;;5056532;28;20243;-74
2022/01/11 07:21:48;;;;;;;0.45;0.45;;;2.90;99.90;;;;;;5052052;28;20514;-74
2022/01/11 07:24:15;;;;;;;1.40;1.30;;;3.00;99.90;;;;;;5034759;28;20029;-74
2022/01/11 07:26:41;;;;;;;0.85;0.85;;;3.10;99.90;;;;;;5033865;28;20115;-74
2022/01/11 07:29:07;;;;;;;0.50;0.50;;;3.20;99.90;;;;;;5072678;28;20048;-74
2022/01/11 07:31:36;;;;;;;0.65;0.65;;;3.20;99.90;;;;;;5054735;28;20098;-74
2022/01/11 07:34:03;;;;;;;6.22;2.45;;;3.10;99.90;;;;;;5054569;28;20658;-74
2022/01/11 07:36:30;;;;;;;0.47;0.47;;;3.00;99.90;;;;;;5055419;28;20025;-74
2022/01/11 07:38:55;;;;;;;1.50;1.10;;;3.00;99.90;;;;;;5052542;28;20449;-74
2022/01/11 07:41:21;;;;;;;1.92;1.83;;;3.00;99.90;;;;;;5052438;28;20108;-75
2022/01/11 07:43:47;;;;;;;0.47;0.47;;;2.90;99.90;;;;;;5052205;28;20033;-74
2022/01/11 07:46:13;;;;;;;0.40;0.40;;;2.90;99.90;;;;;;5054903;28;20037;-74
2022/01/11 07:48:39;;;;;;;3.22;1.98;;;3.00;99.90;;;;;;5044072;28;20020;-74
2022/01/11 07:51:05;;;;;;;0.45;0.45;;;3.10;99.90;;;;;;5032580;28;20111;-74
2022/01/11 07:53:31;;;;;;;0.88;0.88;;;3.00;99.90;;;;;;5063759;28;20060;-74
2022/01/11 07:55:57;;;;;;;0.40;0.40;;;2.90;99.90;;;;;;5050570;28;20059;-74
2022/01/11 07:58:23;;;;;;;0.20;0.20;;;2.90;99.90;;;;;;5050398;28;20029;-74
2022/01/11 08:00:48;;;;;;;5.15;2.35;;;3.00;99.90;;;;;;5039023;28;20450;-74
2022/01/11 08:03:14;;;;;;;0.30;0.30;;;3.10;99.90;;;;;;5050923;28;20028;-74
2022/01/11 08:05:40;;;;;;;0.90;0.57;;;3.20;99.90;;;;;;5050981;28;20521;-74
2022/01/11 08:08:06;;;;;;;0.30;0.30;;;3.10;99.90;;;;;;5046010;28;20086;-74
2022/01/11 08:10:32;;;;;;;2.42;2.22;;;3.10;99.90;;;;;;5050934;28;20357;-74
2022/01/11 08:12:58;;;;;;;1.67;1.58;;;3.20;99.90;;;;;;5051319;28;20020;-75
2022/01/11 08:15:24;;;;;;;15.35;3.40;;;3.20;99.90;;;;;;5051312;28;20461;-73
2022/01/11 08:17:49;;;;;;;0.30;0.30;;;3.10;99.90;;;;;;5049553;28;20036;-73
2022/01/11 08:20:15;;;;;;;0.25;0.25;;;2.90;99.90;;;;;;5049711;28;20401;-73
2022/01/11 08:22:42;;;;;;;3.00;1.25;;;3.00;99.90;;;;;;5051654;28;20029;-73
2022/01/11 08:25:08;;;;;;;2.30;2.13;;;3.10;99.90;;;;;;5051403;28;20438;-73
2022/01/11 08:27:34;;;;;;;0.40;0.40;;;3.00;99.90;;;;;;5051568;28;20029;-73
2022/01/11 08:30:01;;;;;;;1.05;1.05;;;3.10;99.90;;;;;;5051026;28;20469;-73
2022/01/11 08:32:26;;;;;;;1.15;1.15;;;3.10;99.90;;;;;;5037885;28;20515;-72
2022/01/11 08:34:52;;;;;;;0.20;0.20;;;3.20;99.90;;;;;;5027179;28;20087;-73
2022/01/11 08:37:18;;;;;;;4.20;2.72;;;3.20;99.90;;;;;;5037383;28;20022;-73
2022/01/11 08:39:44;;;;;;;1.85;1.63;;;3.00;99.90;;;;;;5050210;28;20029;-73
2022/01/11 08:42:12;;;;;;;4.40;2.25;;;3.10;99.90;;;;;;5039029;28;20116;-73
2022/01/11 08:44:39;;;;;;;0.95;0.95;;;3.20;99.90;;;;;;5017031;28;20025;-74
2022/01/11 08:47:06;;;;;;;0.55;0.55;;;3.20;99.90;;;;;;5050320;28;20100;-74
2022/01/11 08:49:32;;;;;;;0.95;0.95;;;3.00;99.90;;;;;;5040435;28;20029;-74
2022/01/11 08:51:59;;;;;;;8.88;1.20;;;3.00;99.90;;;;;;5039417;28;20013;-74
2022/01/11 08:54:25;;;;;;;2.80;2.60;;;3.00;99.90;;;;;;5020614;28;20036;-74
2022/01/11 08:56:55;;;;;;;0.65;0.65;;;2.90;99.90;;;;;;5050324;28;20211;-74
2022/01/11 08:59:22;;;;;;;5.28;3.08;;;2.80;99.90;;;;;;5039171;28;20025;-74
2022/01/11 09:01:49;;;;;;;0.40;0.40;;;2.90;99.90;;;;;;5045526;28;20032;-74
2022/01/11 09:04:16;;;;;;;0.40;0.40;;;3.00;99.90;;;;;;5021151;28;20029;-74
2022/01/11 09:06:43;;;;;;;7.85;3.03;;;2.90;99.90;;;;;;5050092;28;20528;-74
2022/01/11 09:09:10;;;;;;;2.15;1.38;;;2.70;99.90;;;;;;5042789;28;20491;-74
2022/01/11 09:11:36;;;;;;;0.50;0.50;;;2.60;99.90;;;;;;5050008;28;20025;-74
2022/01/11 09:14:02;;;;;;;5.38;2.58;;;2.70;99.90;;;;;;5022382;28;20033;-74
2022/01/11 09:16:28;;;;;;;0.20;0.20;;;2.80;99.90;;;;;;5049679;28;20107;-75
2022/01/11 09:18:53;;;;;;;1.30;0.85;;;2.60;99.90;;;;;;5050322;28;20415;-75
2022/01/11 09:21:23;;;;;;;1.83;1.30;;;2.60;99.90;;;;;;5049639;28;20033;-75
2022/01/11 09:23:50;;;;;;;0.25;0.25;;;2.70;99.90;;;;;;5050035;28;20464;-75
2022/01/11 09:26:15;;;;;;;2.05;1.95;;;2.80;99.90;;;;;;5049462;28;20024;-75
2022/01/11 09:28:41;;;;;;;2.22;2.10;;;3.00;99.90;;;;;;5051711;28;20392;-75
2022/01/11 09:31:07;;;;;;;2.38;1.20;;;2.80;99.90;;;;;;5053193;28;20528;-75
2022/01/11 09:33:33;;;;;;;1.48;1.40;;;2.80;99.90;;;;;;5041129;28;20476;-75
2022/01/11 09:36:00;;;;;;;0.60;0.60;;;2.80;99.90;;;;;;5053272;28;20044;-75
2022/01/11 09:38:27;;;;;;;0.80;0.80;;;2.80;99.90;;;;;;5053949;28;20086;-72
2022/01/11 09:40:56;;;;;;;0.70;0.70;;;2.90;99.90;;;;;;5038555;28;20074;-74
2022/01/11 09:43:27;;;;;;;1.52;1.48;;;3.00;99.90;;;;;;5052995;28;20052;-74
2022/01/11 09:45:54;;;;;;;2.85;2.30;;;2.90;99.90;;;;;;5050668;28;20032;-74
2022/01/11 09:48:22;;;;;;;9.68;4.65;;;2.50;99.90;;;;;;5052850;28;20041;-74
2022/01/11 09:50:48;;;;;;;1.35;1.15;;;2.60;99.90;;;;;;5052666;28;20100;-74
2022/01/11 09:53:14;;;;;;;0.30;0.30;;;2.50;99.90;;;;;;5050630;28;20111;-74
2022/01/11 09:55:41;;;;;;;4.47;2.80;;;2.40;99.90;;;;;;5051052;28;20108;-74
2022/01/11 09:58:07;;;;;;;0.30;0.30;;;2.50;99.90;;;;;;5052335;28;20027;-74
2022/01/11 10:00:34;;;;;;;1.35;1.30;;;2.70;99.90;;;;;;5053366;28;20423;-74
2022/01/11 10:03:00;;;;;;;0.95;0.90;;;2.70;99.90;;;;;;5043749;28;20025;-74
2022/01/11 10:05:26;;;;;;;0.30;0.30;;;2.70;99.90;;;;;;5053163;28;20096;-74
2022/01/11 10:07:52;;;;;;;1.75;1.65;;;2.90;99.90;;;;;;5035403;28;20103;-74
2022/01/11 10:10:21;;;;;;;1.00;0.98;;;2.80;99.90;;;;;;5034658;28;20435;-74
2022/01/11 10:12:54;;;;;;;3.88;1.85;;;2.90;99.90;;;;;;5037921;28;20048;-74
2022/01/11 10:15:33;;;;;;;3.45;1.98;;;2.90;99.90;;;;;;5053270;28;20095;-75
2022/01/11 10:18:01;;;;;;;0.50;0.50;;;2.80;99.90;;;;;;5042978;28;20052;-74
2022/01/11 10:20:28;;;;;;;3.45;2.38;;;2.80;99.90;;;;;;5053024;28;20045;-74
2022/01/11 10:23:00;;;;;;;2.80;2.60;;;3.00;99.90;;;;;;5025567;28;20051;-74
2022/01/11 10:25:26;;;;;;;;;;;2.90;99.90;;;;;;5048860;28;20071;-74
2022/01/11 10:28:04;;;;;;;5.35;2.13;;;3.00;99.90;;;;;;5052253;28;19916;-74
2022/01/11 10:30:32;;;;;;;6.80;5.00;;;3.00;99.90;;;;;;5023050;28;20079;-74
2022/01/11 10:33:01;;;;;;;2.95;2.85;;;3.10;99.90;;;;;;5039502;28;20489;-74
2022/01/11 10:35:33;;;;;;;5.95;1.20;;;3.20;99.90;;;;;;5052280;28;20029;-74
2022/01/11 10:38:00;;;;;;;0.40;0.40;;;3.20;99.90;;;;;;5042775;28;20544;-74
2022/01/11 10:40:35;;;;;;;1.38;1.30;;;3.20;99.90;;;;;;5051629;28;20193;-74
2022/01/11 10:43:07;;;;;;;0.32;0.32;;;3.30;99.90;;;;;;5052031;28;20049;-75
2022/01/11 10:45:39;;;;;;;1.95;1.85;;;3.40;99.90;;;;;;5052175;28;20035;-74
2022/01/11 10:48:23;;;;;;;1.10;1.10;;;3.50;99.90;;;;;;5041930;28;20104;-74
2022/01/11 10:50:56;;;;;;;13.43;3.22;;;3.50;99.90;;;;;;5049964;28;20499;-74
2022/01/11 10:53:23;;;;;;;0.28;0.28;;;3.40;99.90;;;;;;5051959;28;20383;-74
2022/01/11 10:55:57;;;;;;;0.70;0.70;;;3.40;99.90;;;;;;5034816;28;20369;-74
2022/01/11 10:58:24;;;;;;;3.38;3.10;;;3.50;99.90;;;;;;5052047;28;20056;-75
2022/01/11 11:00:52;;;;;;;1.95;1.30;;;3.60;99.90;;;;;;5045443;28;20021;-74
2022/01/11 11:03:27;;;;;;;1.10;1.10;;;3.50;99.90;;;;;;5051521;28;20027;-73
2022/01/11 11:05:58;;;;;;;0.82;0.82;;;3.40;99.90;;;;;;5047094;28;20100;-74
2022/01/11 11:08:38;;;;;;;0.98;0.98;;;3.50;99.90;;;;;;5019044;28;20507;-74
2022/01/11 11:11:09;;;;;;;0.30;0.30;;;3.40;99.90;;;;;;5051994;28;20555;-74
2022/01/11 11:13:40;;;;;;;0.30;0.30;;;3.40;99.90;;;;;;5051829;28;20055;-74
2022/01/11 11:16:17;;;;;;;1.33;1.13;;;3.40;99.90;;;;;;5051627;28;20068;-74
2022/01/11 11:18:58;;;;;;;5.40;3.35;;;3.50;99.90;;;;;;5047273;28;20024;-74
2022/01/11 11:21:28;;;;;;;0.30;0.30;;;3.50;99.90;;;;;;5039252;28;20029;-74
2022/01/11 11:23:59;;;;;;;0.57;0.57;;;3.70;99.90;;;;;;5047292;28;20029;-74
2022/01/11 11:26:37;;;;;;;4.47;3.85;;;3.80;99.90;;;;;;5051559;28;20108;-74
2022/01/11 11:29:08;;;;;;;1.58;1.48;;;3.60;99.90;;;;;;5040135;28;20496;-74
2022/01/11 11:31:35;;;;;;;6.15;2.70;;;3.50;99.90;;;;;;5046984;28;20017;-74
2022/01/11 11:34:07;;;;;;;0.85;0.85;;;3.50;99.90;;;;;;5041043;28;20095;-74
2022/01/11 11:36:34;;;;;;;2.72;2.58;;;3.50;99.90;;;;;;5049464;28;20032;-74
2022/01/11 11:39:19;;;;;;;1.25;0.85;;;3.40;99.90;;;;;;5050566;28;20056;-73
2022/01/11 11:41:55;;;;;;;0.52;0.52;;;3.40;99.90;;;;;;5048822;28;20029;-73
2022/01/11 11:44:34;;;;;;;3.58;1.20;;;3.40;99.90;;;;;;5050141;28;20042;-74
2022/01/11 11:47:02;;;;;;;0.40;0.40;;;3.40;99.90;;;;;;5050849;28;20041;-73
2022/01/11 11:49:44;;;;;;;1.13;0.75;;;3.40;99.90;;;;;;5038340;28;20020;-74
2022/01/11 11:52:27;;;;;;;5.22;4.78;;;3.70;99.90;;;;;;5050795;28;20050;-73
2022/01/11 11:54:53;;;;;;;;;;;4.20;99.90;;;;;;5051341;28;20544;-73
2022/01/11 11:57:21;;;;;;;1.98;1.23;;;4.80;99.90;;;;;;5050713;28;19951;-73
2022/01/11 11:59:56;;;;;;;1.38;0.75;;;5.10;99.90;;;;;;5050457;28;20056;-74
2022/01/11 12:02:42;;;;;;;1.20;1.15;;;5.80;99.90;;;;;;5039426;28;20021;-74
2022/01/11 12:05:14;;;;;;;3.03;1.60;;;6.40;99.90;;;;;;5049994;28;20113;-74
2022/01/11 12:07:45;;;;;;;0.47;0.47;;;6.00;97.20;;;;;;5050538;28;20056;-73
2022/01/11 12:10:26;;;;;;;0.80;0.80;;;5.80;99.10;;;;;;5048682;28;20396;-74
2022/01/11 12:12:54;;;;;;;0.52;0.52;;;5.70;98.80;;;;;;5043207;28;20029;-73
2022/01/11 12:15:33;;;;;;;2.50;1.58;;;5.50;98.10;;;;;;5039891;28;20349;-73
2022/01/11 12:17:58;;;;;;;0.82;0.82;;;5.50;97.40;;;;;;5050447;28;20473;-74
2022/01/11 12:20:42;;;;;;;1.30;0.95;;;5.60;98.10;;;;;;5033801;28;20028;-74
2022/01/11 12:23:13;;;;;;;6.22;2.45;;;5.50;97.60;;;;;;5040696;28;20431;-74
2022/01/11 12:25:43;;;;;;;2.05;1.90;;;5.40;97.20;;;;;;5042627;28;20029;-74
2022/01/11 12:28:21;;;;;;;0.85;0.73;;;5.50;97.10;;;;;;5038050;28;20033;-73
2022/01/11 12:30:47;;;;;;;5.10;2.95;;;5.30;97.50;;;;;;5033045;28;20048;-75
2022/01/11 12:33:21;;;;;;;1.23;0.85;;;5.00;98.00;;;;;;5039524;28;20033;-74
2022/01/11 12:35:52;;;;;;;0.90;0.82;;;4.70;99.00;;;;;;5032770;28;20025;-74
2022/01/11 12:38:18;;;;;;;0.88;0.88;;;4.40;98.70;;;;;;5045081;28;20557;-74
2022/01/11 12:40:44;;;;;;;0.30;0.30;;;4.10;99.60;;;;;;5032269;28;20025;-74
2022/01/11 12:43:20;;;;;;;0.57;0.57;;;4.20;99.90;;;;;;5027473;28;20476;-74
2022/01/11 12:46:12;;;;;;;1.30;0.93;;;4.20;99.90;;;;;;5036254;28;20112;-74
2022/01/11 12:48:44;;;;;;;;;;;4.30;99.90;;;;;;5043756;28;20381;-74
2022/01/11 12:51:23;;;;;;;0.75;0.75;;;4.00;99.70;;;;;;5039248;28;19905;-74
2022/01/11 12:54:09;;;;;;;0.30;0.30;;;3.90;99.90;;;;;;5014476;28;20116;-75
2022/01/11 12:56:36;;;;;;;3.03;1.30;;;4.10;99.90;;;;;;5046937;28;20420;-74
2022/01/11 12:59:03;;;;;;;0.50;0.45;;;4.30;99.90;;;;;;5036732;28;20554;-73
2022/01/11 13:01:29;;;;;;;2.00;1.85;;;4.50;99.90;;;;;;5041979;28;20063;-74
2022/01/11 13:03:56;;;;;;;1.67;1.23;;;4.40;99.90;;;;;;5051295;28;20021;-74